Time;durP1;ratioP1;P1;durP2;ratioP2;P2;SDS_P1;SDS_P2;PMS_P1;PMS_P2;Temp;Humidity;BMP_temperature;BMP_pressure;BME280_temperature;BME280_humidity;BME280_pressure;Samples;Min_cycle;Max_cycle;Signal;HPM_P1;HPM_P2
2022/11/17 00:01:44;;;;;;;19.27;14.25;;;8.30;99.90;;;;;;4987880;28;20046;-77
2022/11/17 00:04:10;;;;;;;26.50;13.55;;;8.30;99.90;;;;;;4970212;28;20073;-77
2022/11/17 00:06:35;;;;;;;24.52;13.95;;;8.40;99.90;;;;;;4986964;28;20105;-77
2022/11/17 00:09:01;;;;;;;24.85;13.75;;;8.40;99.90;;;;;;4986671;28;20453;-78
2022/11/17 00:14:31;;;;;;;17.95;12.77;;;8.40;99.90;;;;;;4987176;28;20512;-77
2022/11/17 00:16:56;;;;;;;22.60;14.18;;;8.40;99.90;;;;;;4988074;28;20050;-77
2022/11/17 00:22:06;;;;;;;20.85;12.65;;;8.40;99.90;;;;;;4986406;28;20112;-75
2022/11/17 00:24:32;;;;;;;13.95;11.18;;;8.40;99.90;;;;;;4986365;28;20062;-75
2022/11/17 00:27:00;;;;;;;17.92;12.70;;;8.40;99.90;;;;;;4970816;28;20043;-75
2022/11/17 00:29:26;;;;;;;16.95;12.43;;;8.40;99.90;;;;;;4967987;28;20039;-75
2022/11/17 00:34:38;;;;;;;16.58;12.90;;;8.40;99.90;;;;;;4966796;28;20121;-75
2022/11/17 00:37:04;;;;;;;20.27;14.07;;;8.40;99.90;;;;;;4966655;28;20050;-74
2022/11/17 00:39:30;;;;;;;14.75;10.82;;;8.40;99.90;;;;;;4950974;28;20074;-75
2022/11/17 00:41:57;;;;;;;14.77;10.25;;;8.40;99.90;;;;;;4966109;28;20082;-74
2022/11/17 00:44:23;;;;;;;22.02;11.80;;;8.40;99.90;;;;;;4975261;28;20050;-75
2022/11/17 00:46:49;;;;;;;17.80;12.07;;;8.40;99.90;;;;;;4986089;28;20078;-75
2022/11/17 00:49:16;;;;;;;17.88;11.23;;;8.40;99.90;;;;;;4985547;28;20104;-75
2022/11/17 00:51:42;;;;;;;18.10;10.35;;;8.40;99.90;;;;;;4985647;28;20053;-75
2022/11/17 00:54:10;;;;;;;18.45;12.02;;;8.40;99.90;;;;;;4969291;28;20435;-74
2022/11/17 00:56:36;;;;;;;22.23;11.38;;;8.40;99.90;;;;;;4966377;28;20585;-75
2022/11/17 00:59:02;;;;;;;15.27;9.07;;;8.40;99.90;;;;;;4966439;28;20039;-74
2022/11/17 01:01:28;;;;;;;20.45;13.15;;;8.40;99.90;;;;;;4967908;28;20038;-75
2022/11/17 01:04:01;;;;;;;20.35;12.90;;;8.40;99.90;;;;;;4966612;28;20035;-75
2022/11/17 01:06:35;;;;;;;16.10;10.20;;;8.40;99.90;;;;;;4966525;28;20493;-75
2022/11/17 01:09:03;;;;;;;17.90;10.88;;;8.40;99.90;;;;;;4965563;28;20751;-75
2022/11/17 01:11:29;;;;;;;18.52;12.15;;;8.40;99.90;;;;;;4968035;28;20042;-76
2022/11/17 01:13:57;;;;;;;25.25;10.63;;;8.40;99.90;;;;;;4965226;28;20053;-75
2022/11/17 01:16:24;;;;;;;19.27;10.35;;;8.40;99.90;;;;;;4967102;28;20049;-75
2022/11/17 01:18:51;;;;;;;17.80;9.80;;;8.40;99.90;;;;;;4965861;28;20130;-75
2022/11/17 01:21:22;;;;;;;17.08;10.15;;;8.50;99.90;;;;;;4965973;28;20090;-75
2022/11/17 01:23:51;;;;;;;14.48;9.07;;;8.40;99.90;;;;;;4965633;28;20078;-75
2022/11/17 01:26:19;;;;;;;16.50;10.68;;;8.50;99.90;;;;;;4976334;28;20046;-74
2022/11/17 01:28:46;;;;;;;12.45;11.07;;;8.50;99.90;;;;;;4984275;28;20038;-75
2022/11/17 01:31:18;;;;;;;25.15;12.27;;;8.50;99.90;;;;;;4986211;28;20047;-75
2022/11/17 01:33:44;;;;;;;13.38;8.40;;;8.50;99.90;;;;;;4987001;28;20448;-75
2022/11/17 01:36:21;;;;;;;16.55;8.30;;;8.50;99.90;;;;;;4984397;28;20050;-75
2022/11/17 01:38:47;;;;;;;12.80;11.50;;;8.50;99.90;;;;;;4985296;28;20042;-75
2022/11/17 01:41:19;;;;;;;17.42;10.55;;;8.50;99.90;;;;;;4984925;28;20112;-75
2022/11/17 01:43:46;;;;;;;13.00;9.05;;;8.50;99.90;;;;;;4984212;28;20125;-75
2022/11/17 01:46:18;;;;;;;15.43;8.82;;;8.50;99.90;;;;;;4985067;28;20046;-75
2022/11/17 01:48:44;;;;;;;12.90;9.63;;;8.50;99.90;;;;;;4985297;28;20038;-75
2022/11/17 01:51:12;;;;;;;12.68;9.65;;;8.50;99.90;;;;;;4985879;28;20038;-75
2022/11/17 01:53:38;;;;;;;12.38;8.15;;;8.50;99.90;;;;;;4986124;28;20128;-75
2022/11/17 01:56:09;;;;;;;15.07;10.52;;;8.50;99.90;;;;;;4984353;28;20181;-75
2022/11/17 01:58:42;;;;;;;14.75;10.93;;;8.50;99.90;;;;;;4985308;28;20069;-75
2022/11/17 02:01:08;;;;;;;16.70;9.93;;;8.50;99.90;;;;;;4984494;28;20046;-75
2022/11/17 02:03:35;;;;;;;14.20;10.48;;;8.50;99.90;;;;;;4985871;28;20111;-75
2022/11/17 02:06:07;;;;;;;14.07;9.38;;;8.50;99.90;;;;;;4983880;28;20129;-75
2022/11/17 02:08:35;;;;;;;11.45;7.88;;;8.50;99.90;;;;;;4984460;28;20074;-75
2022/11/17 02:11:06;;;;;;;13.57;8.70;;;8.50;99.90;;;;;;4984032;28;20552;-75
2022/11/17 02:13:34;;;;;;;23.45;11.00;;;8.50;99.90;;;;;;4985025;28;20085;-75
2022/11/17 02:15:59;;;;;;;9.80;7.65;;;8.50;99.90;;;;;;4984591;28;20486;-76
2022/11/17 02:18:25;;;;;;;22.95;10.77;;;8.50;99.90;;;;;;4985934;28;20101;-75
2022/11/17 02:20:57;;;;;;;16.25;9.80;;;8.50;99.90;;;;;;4983969;28;20038;-74
2022/11/17 02:23:31;;;;;;;9.57;8.13;;;8.50;99.90;;;;;;4984999;28;20556;-75
2022/11/17 02:26:18;;;;;;;12.43;10.15;;;8.50;99.90;;;;;;4964692;28;20046;-75
2022/11/17 02:28:49;;;;;;;11.52;7.95;;;8.50;99.90;;;;;;4966928;28;20054;-75
2022/11/17 02:31:40;;;;;;;14.63;10.98;;;8.50;99.90;;;;;;4984284;28;20064;-75
2022/11/17 02:34:13;;;;;;;13.45;9.30;;;8.50;99.90;;;;;;4985786;28;20161;-74
2022/11/17 02:36:50;;;;;;;12.65;9.02;;;8.50;99.90;;;;;;4983981;28;20058;-74
2022/11/17 02:39:27;;;;;;;12.63;9.40;;;8.50;99.90;;;;;;4984998;28;20069;-75
2022/11/17 02:42:18;;;;;;;14.98;9.65;;;8.40;99.90;;;;;;4984997;28;20813;-75
2022/11/17 02:44:49;;;;;;;11.32;8.48;;;8.50;99.90;;;;;;4982802;28;20053;-75
2022/11/17 02:47:21;;;;;;;11.13;8.88;;;8.40;99.90;;;;;;4983703;28;20121;-74
2022/11/17 02:49:51;;;;;;;;;;;8.40;99.90;;;;;;4984095;28;20086;-75
2022/11/17 02:52:17;;;;;;;14.63;10.13;;;8.40;99.90;;;;;;4983733;28;20028;-75
2022/11/17 02:54:43;;;;;;;21.27;10.00;;;8.40;99.90;;;;;;4984952;28;20086;-75
2022/11/17 02:57:28;;;;;;;14.20;9.68;;;8.40;99.90;;;;;;4967106;28;20081;-75
2022/11/17 02:59:55;;;;;;;15.23;9.07;;;8.40;99.90;;;;;;4985780;28;20082;-74
2022/11/17 03:02:45;;;;;;;14.73;10.52;;;8.40;99.90;;;;;;4983396;28;20054;-75
2022/11/17 03:05:24;;;;;;;13.75;10.13;;;8.40;99.90;;;;;;4983222;28;20053;-74
2022/11/17 03:08:19;;;;;;;13.88;10.45;;;8.40;99.90;;;;;;4984830;28;20513;-74
2022/11/17 03:10:56;;;;;;;11.65;8.35;;;8.40;99.90;;;;;;4985165;28;20412;-75
2022/11/17 03:13:57;;;;;;;13.60;9.20;;;8.40;99.90;;;;;;4983333;28;20085;-75
2022/11/17 03:16:36;;;;;;;12.82;8.55;;;8.40;99.90;;;;;;4983153;28;20571;-76
2022/11/17 03:19:15;;;;;;;13.40;9.00;;;8.40;99.90;;;;;;4984527;28;20070;-75
2022/11/17 03:21:57;;;;;;;12.25;8.35;;;8.40;99.90;;;;;;4982980;28;20122;-74
2022/11/17 03:24:29;;;;;;;12.00;7.90;;;8.40;99.90;;;;;;4983448;28;20046;-75
2022/11/17 03:27:24;;;;;;;13.35;8.57;;;8.30;99.90;;;;;;4967444;28;20129;-75
2022/11/17 03:29:54;;;;;;;13.38;8.15;;;8.30;99.90;;;;;;4976457;28;20051;-75
2022/11/17 03:32:22;;;;;;;11.00;7.07;;;8.30;99.90;;;;;;4966953;28;20047;-75
2022/11/17 03:35:02;;;;;;;13.05;8.00;;;8.30;99.90;;;;;;4984875;28;20085;-75
2022/11/17 03:37:33;;;;;;;11.05;7.95;;;8.30;99.90;;;;;;4967792;28;20069;-75
2022/11/17 03:40:07;;;;;;;10.52;8.20;;;8.30;99.90;;;;;;4983410;28;20050;-77
2022/11/17 03:42:35;;;;;;;17.70;8.75;;;8.30;99.90;;;;;;4983330;28;20046;-75
2022/11/17 03:45:05;;;;;;;9.60;7.15;;;8.30;99.90;;;;;;4983227;28;20493;-75
2022/11/17 03:47:32;;;;;;;16.25;9.05;;;8.30;99.90;;;;;;4983158;28;20053;-76
2022/11/17 03:50:01;;;;;;;12.35;9.35;;;8.30;99.90;;;;;;4983752;28;20058;-75
2022/11/17 03:52:28;;;;;;;11.65;7.93;;;8.30;99.90;;;;;;4984858;28;20440;-75
2022/11/17 03:54:54;;;;;;;9.60;6.65;;;8.30;99.90;;;;;;4983553;28;20069;-75
2022/11/17 03:57:52;;;;;;;10.10;8.23;;;8.30;99.90;;;;;;4983003;28;20104;-75
2022/11/17 04:00:19;;;;;;;13.80;9.25;;;8.30;99.90;;;;;;4984236;28;20077;-75
2022/11/17 04:02:48;;;;;;;10.60;8.05;;;8.30;99.90;;;;;;4983812;28;20057;-75
2022/11/17 04:05:16;;;;;;;12.65;8.15;;;8.30;99.90;;;;;;4964677;28;20094;-75
2022/11/17 04:07:44;;;;;;;9.70;8.10;;;8.30;99.90;;;;;;4964816;28;20134;-75
2022/11/17 04:10:14;;;;;;;11.73;7.10;;;8.30;99.90;;;;;;4963247;28;20089;-76
2022/11/17 04:18:08;;;;;;;10.68;8.10;;;8.30;99.90;;;;;;4981691;28;20051;-75
2022/11/17 04:20:37;;;;;;;10.85;8.10;;;8.30;99.90;;;;;;4974278;28;20558;-75
2022/11/17 04:23:12;;;;;;;9.57;6.03;;;8.30;99.90;;;;;;4987357;28;20045;-75
2022/11/17 04:28:36;;;;;;;10.30;7.95;;;8.30;99.90;;;;;;4966226;28;20058;-76
2022/11/17 04:31:03;;;;;;;11.73;6.75;;;8.30;99.90;;;;;;4967564;28;20053;-76
2022/11/17 04:33:28;;;;;;;10.13;6.82;;;8.30;99.90;;;;;;4984197;28;20084;-77
2022/11/17 04:35:54;;;;;;;11.88;7.95;;;8.30;99.90;;;;;;4986607;28;20042;-76
2022/11/17 04:38:20;;;;;;;10.23;6.50;;;8.30;99.90;;;;;;4986984;28;20405;-75
2022/11/17 04:43:29;;;;;;;10.95;7.15;;;8.30;99.90;;;;;;4967323;28;20078;-76
2022/11/17 04:46:00;;;;;;;9.73;6.93;;;8.30;99.90;;;;;;4967225;28;20449;-75
2022/11/17 04:48:27;;;;;;;10.60;7.70;;;8.30;99.90;;;;;;4966876;28;20046;-75
2022/11/17 04:50:55;;;;;;;10.82;7.50;;;8.30;99.90;;;;;;4968430;28;20564;-75
2022/11/17 04:53:22;;;;;;;9.50;6.45;;;8.30;99.90;;;;;;4967654;28;20155;-75
2022/11/17 04:55:48;;;;;;;9.75;7.00;;;8.30;99.90;;;;;;4967806;28;20047;-75
2022/11/17 04:58:14;;;;;;;14.30;6.32;;;8.30;99.90;;;;;;4949410;28;20042;-75
2022/11/17 05:00:40;;;;;;;22.85;7.95;;;8.30;99.90;;;;;;4967585;28;20045;-75
2022/11/17 05:03:05;;;;;;;10.73;7.22;;;8.30;99.90;;;;;;4967920;28;20043;-75
2022/11/17 05:05:31;;;;;;;11.73;6.97;;;8.30;99.90;;;;;;4967420;28;20054;-76
2022/11/17 05:07:56;;;;;;;11.10;6.40;;;8.30;99.90;;;;;;4967854;28;20497;-75
2022/11/17 05:13:20;;;;;;;9.40;6.20;;;8.30;99.90;;;;;;4942981;28;20055;-75
2022/11/17 05:18:32;;;;;;;7.22;5.53;;;8.30;99.90;;;;;;4981891;28;20076;-75
2022/11/17 05:21:05;;;;;;;11.68;6.43;;;8.30;99.90;;;;;;4986478;28;20493;-74
2022/11/17 05:26:15;;;;;;;7.28;5.45;;;8.20;99.90;;;;;;4985389;28;20065;-75
2022/11/17 05:28:41;;;;;;;8.43;5.93;;;8.20;99.90;;;;;;4984477;28;20042;-75
2022/11/17 05:31:07;;;;;;;11.27;6.65;;;8.20;99.90;;;;;;4986248;28;20100;-75
2022/11/17 05:33:33;;;;;;;11.25;7.65;;;8.20;99.90;;;;;;4968984;28;20046;-74
2022/11/17 05:35:58;;;;;;;10.38;6.60;;;8.20;99.90;;;;;;4985341;28;20571;-75
2022/11/17 05:38:24;;;;;;;10.93;7.85;;;8.20;99.90;;;;;;4987025;28;20046;-74
2022/11/17 05:40:49;;;;;;;9.65;6.70;;;8.20;99.90;;;;;;4985360;28;20405;-76
2022/11/17 05:43:15;;;;;;;14.55;7.70;;;8.20;99.90;;;;;;4980810;28;20055;-79
2022/11/17 05:45:43;;;;;;;8.63;5.55;;;8.20;99.90;;;;;;4986339;28;20038;-79
2022/11/17 05:48:09;;;;;;;10.77;7.57;;;8.20;99.90;;;;;;4986375;28;20125;-76
2022/11/17 05:50:34;;;;;;;9.88;6.90;;;8.20;99.90;;;;;;4986451;28;20565;-76
2022/11/17 05:53:00;;;;;;;9.65;6.30;;;8.20;99.90;;;;;;4984374;28;20034;-77
2022/11/17 05:55:26;;;;;;;9.70;6.65;;;8.20;99.90;;;;;;4986782;28;20679;-76
2022/11/17 05:57:53;;;;;;;8.57;6.57;;;8.10;99.90;;;;;;4985625;28;20045;-76
2022/11/17 06:00:18;;;;;;;11.07;6.68;;;8.20;99.90;;;;;;4985814;28;20045;-77
2022/11/17 06:02:55;;;;;;;10.05;7.88;;;8.20;99.90;;;;;;4964467;28;20042;-76
2022/11/17 06:05:22;;;;;;;9.10;6.70;;;8.20;99.90;;;;;;4974806;28;20114;-77
2022/11/17 06:07:49;;;;;;;10.05;6.97;;;8.10;99.90;;;;;;4985540;28;20366;-77
2022/11/17 06:10:15;;;;;;;10.45;6.22;;;8.10;99.90;;;;;;4980919;28;20551;-74
2022/11/17 06:12:41;;;;;;;7.40;5.60;;;8.10;99.90;;;;;;4983927;28;20123;-76
2022/11/17 06:15:07;;;;;;;7.25;6.18;;;8.10;99.90;;;;;;4983902;28;20085;-75
2022/11/17 06:17:39;;;;;;;12.57;4.82;;;8.10;99.90;;;;;;4974390;28;20097;-76
2022/11/17 06:20:16;;;;;;;7.10;4.75;;;8.10;99.90;;;;;;4984109;28;20158;-76
2022/11/17 06:22:41;;;;;;;6.13;4.95;;;8.10;99.90;;;;;;4967143;28;20046;-76
2022/11/17 06:25:08;;;;;;;6.95;4.93;;;8.10;99.90;;;;;;4980449;28;20547;-76
2022/11/17 06:27:36;;;;;;;6.53;5.65;;;8.10;99.90;;;;;;4982183;28;20046;-76
2022/11/17 06:30:03;;;;;;;8.23;5.95;;;8.10;99.90;;;;;;4985373;28;20489;-77
2022/11/17 06:32:31;;;;;;;6.10;4.78;;;8.10;99.90;;;;;;4983972;28;20046;-77
2022/11/17 06:34:59;;;;;;;7.18;4.30;;;8.10;99.90;;;;;;4979305;28;20095;-75
2022/11/17 06:37:24;;;;;;;7.03;4.50;;;8.10;99.90;;;;;;4972208;28;20073;-76
2022/11/17 06:39:50;;;;;;;12.40;6.15;;;8.10;99.90;;;;;;4991345;28;20467;-76
2022/11/17 06:42:15;;;;;;;7.60;4.03;;;8.00;99.90;;;;;;4997048;28;20034;-76
2022/11/17 06:44:41;;;;;;;11.93;5.60;;;8.00;99.90;;;;;;4983209;28;20078;-75
2022/11/17 06:47:06;;;;;;;6.95;4.95;;;8.00;99.90;;;;;;4983354;28;20563;-76
2022/11/17 06:49:32;;;;;;;7.50;4.40;;;8.00;99.90;;;;;;4978729;28;20492;-75
2022/11/17 06:51:58;;;;;;;7.57;4.25;;;8.00;99.90;;;;;;4975424;28;20069;-75
2022/11/17 06:54:23;;;;;;;7.30;5.32;;;8.00;99.90;;;;;;4974305;28;20062;-75
2022/11/17 06:56:50;;;;;;;6.18;3.58;;;8.00;99.90;;;;;;4977534;28;20042;-75
2022/11/17 06:59:16;;;;;;;4.47;3.58;;;8.00;99.90;;;;;;4963602;28;20038;-77
2022/11/17 07:01:42;;;;;;;5.55;3.30;;;7.90;99.90;;;;;;4985400;28;20551;-76
2022/11/17 07:04:08;;;;;;;4.00;3.40;;;7.90;99.90;;;;;;4981926;28;20046;-76
2022/11/17 07:06:38;;;;;;;7.32;4.38;;;7.90;99.90;;;;;;4955164;28;20421;-77
2022/11/17 07:09:04;;;;;;;3.90;3.47;;;7.90;99.90;;;;;;4982643;28;20046;-76
2022/11/17 07:11:29;;;;;;;6.85;4.35;;;7.90;99.90;;;;;;4973514;28;20053;-78
2022/11/17 07:13:57;;;;;;;6.60;4.65;;;7.90;99.90;;;;;;4980561;28;20061;-75
2022/11/17 07:16:22;;;;;;;3.88;3.58;;;7.80;99.90;;;;;;4983108;28;20049;-76
2022/11/17 07:18:48;;;;;;;7.40;4.57;;;7.80;99.90;;;;;;4977203;28;20619;-77
2022/11/17 07:21:14;;;;;;;4.55;3.60;;;7.80;99.90;;;;;;4966853;28;20086;-77
2022/11/17 07:23:41;;;;;;;5.72;5.03;;;7.80;99.90;;;;;;4972112;28;20382;-76
2022/11/17 07:26:08;;;;;;;6.63;4.57;;;7.90;99.90;;;;;;4979183;28;20038;-77
2022/11/17 07:28:34;;;;;;;4.57;3.40;;;7.80;99.90;;;;;;4982476;28;20129;-76
2022/11/17 07:31:05;;;;;;;4.35;3.92;;;7.80;99.90;;;;;;4974345;28;20121;-77
2022/11/17 07:33:31;;;;;;;5.97;5.38;;;7.80;99.90;;;;;;4973789;28;20034;-76
2022/11/17 07:36:09;;;;;;;5.72;3.97;;;7.80;99.90;;;;;;4966131;28;20061;-76
2022/11/17 07:38:37;;;;;;;4.65;3.67;;;7.80;99.90;;;;;;4979916;28;20118;-75
2022/11/17 07:41:03;;;;;;;7.57;4.38;;;7.80;99.90;;;;;;4976883;28;20046;-75
2022/11/17 07:43:29;;;;;;;4.85;3.58;;;7.80;99.90;;;;;;4970605;28;20068;-76
2022/11/17 07:45:55;;;;;;;4.25;3.85;;;7.80;99.90;;;;;;4963973;28;20459;-75
2022/11/17 07:48:21;;;;;;;5.60;3.58;;;7.80;99.90;;;;;;4965663;28;20057;-75
2022/11/17 07:50:47;;;;;;;6.25;3.97;;;7.80;99.90;;;;;;4981826;28;20038;-75
2022/11/17 07:53:12;;;;;;;5.13;3.92;;;7.80;99.90;;;;;;4974187;28;20047;-75
2022/11/17 07:55:38;;;;;;;5.03;3.83;;;7.80;99.90;;;;;;4983623;28;20066;-75
2022/11/17 07:58:04;;;;;;;8.90;3.92;;;7.80;99.90;;;;;;4966164;28;20043;-76
2022/11/17 08:00:32;;;;;;;5.15;4.63;;;7.80;99.90;;;;;;4969395;28;20065;-76
2022/11/17 08:03:02;;;;;;;5.15;4.00;;;7.80;99.90;;;;;;4980373;28;20074;-75
2022/11/17 08:05:29;;;;;;;5.80;4.15;;;7.80;99.90;;;;;;4978934;28;20034;-77
2022/11/17 08:07:56;;;;;;;5.35;4.20;;;7.80;99.90;;;;;;4976390;28;20430;-76
2022/11/17 08:10:23;;;;;;;6.75;4.50;;;7.80;99.90;;;;;;4970707;28;20083;-77
2022/11/17 08:12:53;;;;;;;6.72;4.45;;;7.80;99.90;;;;;;4968288;28;20059;-78
2022/11/17 08:15:20;;;;;;;5.35;4.68;;;7.80;99.90;;;;;;4967072;28;20563;-77
2022/11/17 08:17:52;;;;;;;5.65;3.83;;;7.80;99.90;;;;;;4969074;28;20094;-76
2022/11/17 08:20:17;;;;;;;4.80;4.28;;;7.80;99.90;;;;;;4951446;28;20066;-76
2022/11/17 08:22:43;;;;;;;4.55;3.55;;;7.80;99.90;;;;;;4981639;28;20409;-76
2022/11/17 08:25:09;;;;;;;5.30;4.60;;;7.80;99.90;;;;;;4985599;28;20120;-77
2022/11/17 08:27:35;;;;;;;3.95;3.42;;;7.80;99.90;;;;;;4969369;28;20046;-76
2022/11/17 08:30:00;;;;;;;3.92;3.20;;;7.80;99.90;;;;;;4985545;28;20039;-78
2022/11/17 08:32:28;;;;;;;5.32;3.80;;;7.80;99.90;;;;;;4983114;28;20070;-76
2022/11/17 08:34:53;;;;;;;3.45;3.15;;;7.80;99.90;;;;;;4976822;28;20038;-77
2022/11/17 08:37:19;;;;;;;5.95;3.15;;;7.80;99.90;;;;;;4979623;28;20054;-77
2022/11/17 08:39:44;;;;;;;3.65;3.10;;;7.80;99.90;;;;;;4975936;28;20030;-77
2022/11/17 08:42:10;;;;;;;5.95;4.55;;;7.80;99.90;;;;;;4977270;28;20054;-78
2022/11/17 08:44:36;;;;;;;5.95;4.38;;;7.80;99.90;;;;;;4974247;28;20054;-77
2022/11/17 08:47:01;;;;;;;3.47;2.88;;;7.80;99.90;;;;;;4970550;28;20039;-77
2022/11/17 08:49:27;;;;;;;6.22;4.05;;;7.70;99.90;;;;;;4968772;28;20047;-78
2022/11/17 08:51:52;;;;;;;6.18;3.72;;;7.70;99.90;;;;;;4977422;28;20393;-77
2022/11/17 08:54:18;;;;;;;3.95;3.17;;;7.70;99.90;;;;;;4981300;28;20105;-76
2022/11/17 08:56:45;;;;;;;5.43;4.00;;;7.70;99.90;;;;;;4977706;28;20608;-76
2022/11/17 08:59:12;;;;;;;5.97;3.13;;;7.70;99.90;;;;;;4969727;28;20089;-75
2022/11/17 09:01:38;;;;;;;5.13;3.58;;;7.70;99.90;;;;;;4977879;28;20051;-75
2022/11/17 09:04:04;;;;;;;3.25;2.95;;;7.70;99.90;;;;;;4985780;28;20049;-76
2022/11/17 09:06:30;;;;;;;5.35;3.55;;;7.70;99.90;;;;;;4969833;28;20054;-76
2022/11/17 09:08:56;;;;;;;3.90;3.35;;;7.70;99.90;;;;;;4975187;28;20482;-77
2022/11/17 09:11:22;;;;;;;5.57;3.88;;;7.70;99.90;;;;;;4971313;28;20498;-76
2022/11/17 09:13:47;;;;;;;4.50;2.95;;;7.80;99.90;;;;;;4972495;28;20133;-76
2022/11/17 09:16:14;;;;;;;5.28;3.60;;;7.80;99.90;;;;;;4974390;28;20155;-76
2022/11/17 09:18:40;;;;;;;10.90;3.75;;;7.80;99.90;;;;;;4978366;28;20109;-76
2022/11/17 09:21:11;;;;;;;4.32;3.85;;;7.80;99.90;;;;;;4972601;28;20047;-76
2022/11/17 09:23:37;;;;;;;5.40;4.57;;;7.90;99.90;;;;;;4989593;28;20089;-75
2022/11/17 09:26:11;;;;;;;4.63;3.38;;;7.80;99.90;;;;;;4997957;28;20097;-76
2022/11/17 09:28:37;;;;;;;3.80;2.88;;;7.80;99.90;;;;;;4986481;28;20046;-76
2022/11/17 09:31:11;;;;;;;5.80;3.85;;;7.90;99.90;;;;;;4986974;28;20121;-75
2022/11/17 09:33:37;;;;;;;4.15;2.80;;;7.90;99.90;;;;;;4987367;28;20061;-77
2022/11/17 09:36:03;;;;;;;5.32;3.88;;;7.90;99.90;;;;;;4986721;28;20038;-76
2022/11/17 09:38:29;;;;;;;5.97;4.95;;;7.90;99.90;;;;;;4987639;28;20097;-78
2022/11/17 09:40:57;;;;;;;5.75;3.28;;;7.90;99.90;;;;;;4973615;28;20050;-76
2022/11/17 09:43:33;;;;;;;3.72;3.22;;;7.90;99.90;;;;;;4979085;28;20121;-76
2022/11/17 09:46:16;;;;;;;3.95;3.10;;;7.90;99.90;;;;;;4985206;28;20057;-77
2022/11/17 09:49:18;;;;;;;4.25;3.60;;;7.90;99.90;;;;;;4970136;28;20039;-76
2022/11/17 09:51:47;;;;;;;5.13;3.40;;;7.90;99.90;;;;;;4978934;28;20057;-77
2022/11/17 09:54:25;;;;;;;4.97;3.03;;;7.90;99.90;;;;;;4985697;28;20045;-78
2022/11/17 09:56:51;;;;;;;3.08;2.75;;;7.90;99.90;;;;;;4986222;28;20042;-78
2022/11/17 09:59:20;;;;;;;3.92;2.53;;;7.90;99.90;;;;;;4986968;28;20042;-77
2022/11/17 10:01:45;;;;;;;5.75;3.58;;;7.90;99.90;;;;;;4986765;28;20043;-77
2022/11/17 10:04:15;;;;;;;4.03;3.63;;;7.90;99.90;;;;;;4986531;28;20128;-78
2022/11/17 10:06:44;;;;;;;4.13;3.10;;;7.90;99.90;;;;;;4985520;28;20412;-77
2022/11/17 10:09:31;;;;;;;4.20;2.90;;;7.90;99.90;;;;;;4986612;28;20047;-77
2022/11/17 10:12:12;;;;;;;5.20;3.67;;;7.90;99.90;;;;;;4984217;28;20054;-77
2022/11/17 10:14:39;;;;;;;5.53;3.90;;;8.00;99.90;;;;;;4984638;28;20440;-78
2022/11/17 10:17:05;;;;;;;4.40;2.92;;;7.90;99.90;;;;;;4986792;28;20137;-77
2022/11/17 10:19:32;;;;;;;3.72;3.17;;;8.00;99.90;;;;;;4968809;28;20122;-77
2022/11/17 10:22:01;;;;;;;3.53;3.08;;;8.00;99.90;;;;;;4966254;28;20047;-78
2022/11/17 10:24:42;;;;;;;4.13;3.67;;;8.00;99.90;;;;;;4968382;28;20051;-77
2022/11/17 10:27:16;;;;;;;4.03;2.97;;;8.00;99.90;;;;;;4976869;28;20136;-77
2022/11/17 10:30:03;;;;;;;4.38;2.40;;;8.00;99.90;;;;;;4986092;28;20081;-77
2022/11/17 10:32:32;;;;;;;5.03;3.40;;;8.00;99.90;;;;;;4983262;28;20559;-78
2022/11/17 10:35:16;;;;;;;3.80;3.08;;;8.00;99.90;;;;;;4986165;28;20046;-75
2022/11/17 10:37:51;;;;;;;3.25;2.55;;;8.00;99.90;;;;;;4981433;28;20046;-78
2022/11/17 10:40:22;;;;;;;4.43;2.85;;;8.00;99.90;;;;;;4967708;28;20046;-77
2022/11/17 10:43:28;;;;;;;2.73;2.53;;;8.00;99.90;;;;;;4984642;28;20042;-77
2022/11/17 10:45:57;;;;;;;2.63;2.40;;;8.10;99.90;;;;;;4978061;28;20461;-78
2022/11/17 10:48:35;;;;;;;4.10;3.05;;;8.00;99.90;;;;;;4968061;28;20081;-76
2022/11/17 10:51:02;;;;;;;4.25;3.00;;;8.10;99.90;;;;;;4978218;28;20053;-77
2022/11/17 10:53:37;;;;;;;4.78;2.55;;;8.10;99.90;;;;;;4978322;28;20070;-77
2022/11/17 10:56:10;;;;;;;4.07;2.95;;;8.10;99.90;;;;;;4966684;28;20039;-77
2022/11/17 10:58:55;;;;;;;3.72;2.33;;;8.10;99.90;;;;;;4980819;28;20492;-76
2022/11/17 11:01:28;;;;;;;5.18;2.50;;;8.20;99.90;;;;;;4982848;28;20054;-77
2022/11/17 11:03:53;;;;;;;4.13;3.08;;;8.10;99.90;;;;;;4969277;28;20617;-76
2022/11/17 11:06:23;;;;;;;3.42;3.13;;;8.10;99.90;;;;;;4965882;28;20051;-76
2022/11/17 11:09:18;;;;;;;4.40;3.17;;;8.10;99.90;;;;;;4984719;28;20057;-74
2022/11/17 11:11:52;;;;;;;3.78;3.13;;;8.20;99.90;;;;;;4983712;28;20050;-76
2022/11/17 11:14:34;;;;;;;2.80;2.53;;;8.10;99.90;;;;;;4991357;28;20528;-77
2022/11/17 11:17:09;;;;;;;4.95;2.63;;;8.10;99.90;;;;;;4979134;28;20051;-77
2022/11/17 11:19:34;;;;;;;3.05;2.42;;;8.10;99.90;;;;;;4967623;28;20037;-77
2022/11/17 11:22:19;;;;;;;2.72;2.53;;;8.10;99.90;;;;;;4982553;28;20054;-76
2022/11/17 11:25:14;;;;;;;2.92;2.63;;;8.10;99.90;;;;;;4979132;28;20122;-76
2022/11/17 11:27:59;;;;;;;5.07;3.35;;;8.20;99.90;;;;;;4978373;28;20054;-76
2022/11/17 11:30:25;;;;;;;4.07;3.13;;;8.20;99.90;;;;;;4979768;28;20164;-77
2022/11/17 11:33:03;;;;;;;3.25;2.50;;;8.20;99.90;;;;;;4962448;28;20045;-78
2022/11/17 11:35:41;;;;;;;5.43;4.30;;;8.20;99.90;;;;;;4961448;28;20125;-77
2022/11/17 11:38:22;;;;;;;3.10;2.42;;;8.30;99.90;;;;;;4979049;28;20741;-77
2022/11/17 11:40:57;;;;;;;5.03;3.55;;;8.30;99.90;;;;;;4980838;28;20046;-76
2022/11/17 11:44:00;;;;;;;3.58;3.17;;;8.30;99.90;;;;;;4977357;28;20122;-77
2022/11/17 11:46:47;;;;;;;4.07;2.97;;;8.30;99.90;;;;;;4999696;28;20053;-77
2022/11/17 11:49:18;;;;;;;3.80;3.17;;;8.40;99.90;;;;;;4983546;28;20046;-77
2022/11/17 11:51:48;;;;;;;7.43;3.33;;;8.40;99.90;;;;;;4980895;28;20047;-77
2022/11/17 11:54:31;;;;;;;4.80;4.18;;;8.40;99.90;;;;;;4984833;28;20038;-77
2022/11/17 11:56:57;;;;;;;3.70;3.20;;;8.40;99.90;;;;;;4962861;28;20058;-76
2022/11/17 11:59:38;;;;;;;3.92;3.35;;;8.40;99.90;;;;;;4977665;28;20045;-77
2022/11/17 12:02:17;;;;;;;3.38;3.05;;;8.40;99.90;;;;;;4986672;28;20489;-77
2022/11/17 12:05:00;;;;;;;4.13;3.50;;;8.40;99.90;;;;;;4977023;28;20122;-79
2022/11/17 12:07:41;;;;;;;3.90;3.30;;;8.40;99.90;;;;;;4986662;28;20105;-77
2022/11/17 12:10:29;;;;;;;4.18;3.72;;;8.50;99.90;;;;;;4979861;28;20042;-79
2022/11/17 12:12:55;;;;;;;6.35;3.97;;;8.50;99.90;;;;;;4993874;28;20046;-77
2022/11/17 12:15:21;;;;;;;4.07;3.67;;;8.50;99.90;;;;;;4988474;28;20058;-78
2022/11/17 12:17:59;;;;;;;4.78;2.85;;;8.50;99.90;;;;;;4987909;28;20053;-77
2022/11/17 12:20:37;;;;;;;6.18;4.00;;;8.50;99.90;;;;;;5000509;28;20074;-75
2022/11/17 12:23:28;;;;;;;5.05;3.58;;;8.50;99.90;;;;;;4966446;28;20196;-75
2022/11/17 12:25:58;;;;;;;2.92;2.67;;;8.50;99.90;;;;;;4985326;28;20092;-76
2022/11/17 12:28:29;;;;;;;5.00;2.88;;;8.50;99.90;;;;;;4986304;28;20131;-79
2022/11/17 12:30:59;;;;;;;2.13;1.88;;;8.60;99.90;;;;;;4988899;28;20070;-80
2022/11/17 12:33:53;;;;;;;2.72;2.40;;;8.50;99.90;;;;;;4986226;28;20039;-80
2022/11/17 12:36:30;;;;;;;2.97;2.13;;;8.60;99.90;;;;;;4987450;28;20042;-80
2022/11/17 12:38:56;;;;;;;3.58;3.15;;;8.60;99.90;;;;;;4978418;28;20053;-78
2022/11/17 12:41:46;;;;;;;5.43;2.97;;;8.60;99.90;;;;;;4985151;28;20057;-78
2022/11/17 12:44:30;;;;;;;3.47;2.22;;;8.60;99.90;;;;;;4974213;28;20046;-79
2022/11/17 12:47:23;;;;;;;4.15;2.75;;;8.60;99.90;;;;;;4975038;28;20049;-77
2022/11/17 12:50:16;;;;;;;2.90;2.42;;;8.60;99.90;;;;;;4986271;28;20065;-78
2022/11/17 12:52:42;;;;;;;3.83;1.95;;;8.60;99.90;;;;;;4975913;28;20988;-76
2022/11/17 12:55:39;;;;;;;4.03;2.35;;;8.60;99.90;;;;;;4977091;28;20051;-78
2022/11/17 12:58:15;;;;;;;3.83;2.85;;;8.60;99.90;;;;;;4976894;28;20493;-77
2022/11/17 13:01:08;;;;;;;3.88;2.60;;;8.60;99.90;;;;;;4975930;28;20730;-78
2022/11/17 13:03:48;;;;;;;3.65;3.08;;;8.60;99.90;;;;;;4972809;28;20619;-78
2022/11/17 13:06:15;;;;;;;4.00;3.53;;;8.60;99.90;;;;;;4980792;28;20133;-77
2022/11/17 13:08:55;;;;;;;3.03;2.38;;;8.70;99.90;;;;;;4967710;28;20039;-77
2022/11/17 13:11:21;;;;;;;2.58;2.38;;;8.70;99.90;;;;;;4966681;28;20520;-77
2022/11/17 13:13:47;;;;;;;5.80;3.10;;;8.60;99.90;;;;;;4969223;28;20065;-78
2022/11/17 13:16:20;;;;;;;2.95;2.50;;;8.70;99.90;;;;;;4969724;28;20051;-78
2022/11/17 13:18:47;;;;;;;4.20;2.08;;;8.70;99.90;;;;;;4987076;28;20146;-77
2022/11/17 13:21:26;;;;;;;6.40;3.05;;;8.70;99.90;;;;;;4979341;28;20481;-77
2022/11/17 13:23:53;;;;;;;2.72;2.42;;;8.70;99.90;;;;;;4978800;28;20505;-78
2022/11/17 13:26:20;;;;;;;3.63;2.90;;;8.70;99.90;;;;;;4976920;28;20084;-77
2022/11/17 13:28:46;;;;;;;4.82;3.28;;;8.80;99.90;;;;;;4974745;28;20485;-77
2022/11/17 13:31:24;;;;;;;3.42;2.72;;;8.80;99.90;;;;;;4974948;28;20104;-77
2022/11/17 13:34:02;;;;;;;3.65;3.05;;;8.80;99.90;;;;;;4987230;28;20045;-78
2022/11/17 13:36:27;;;;;;;8.48;2.72;;;8.80;99.90;;;;;;4987673;28;20043;-78
2022/11/17 13:38:56;;;;;;;5.05;2.10;;;8.90;99.90;;;;;;4989011;28;20592;-78
2022/11/17 13:41:23;;;;;;;15.95;3.15;;;8.90;99.90;;;;;;4969969;28;20042;-77